sensor_id;sensor_type;location;lat;lon;timestamp;pressure;altitude;pressure_sealevel;temperature;humidity
2785;BME280;57944;48.722;9.316;2023-06-05T00:00:13;98111.34;;;12.46;95.80
2785;BME280;57944;48.722;9.316;2023-06-05T00:02:44;98118.00;;;12.47;99.74
2785;BME280;57944;48.722;9.316;2023-06-05T00:05:15;98120.38;;;12.42;98.37
2785;BME280;57944;48.722;9.316;2023-06-05T00:07:46;98112.13;;;12.46;99.34
2785;BME280;57944;48.722;9.316;2023-06-05T00:10:17;98111.16;;;12.34;100.00
2785;BME280;57944;48.722;9.316;2023-06-05T00:12:50;98114.72;;;12.26;100.00
2785;BME280;57944;48.722;9.316;2023-06-05T00:15:21;98112.75;;;12.15;100.00
2785;BME280;57944;48.722;9.316;2023-06-05T00:17:52;98117.47;;;12.12;100.00
2785;BME280;57944;48.722;9.316;2023-06-05T00:20:23;98120.22;;;12.10;100.00
2785;BME280;57944;48.722;9.316;2023-06-05T00:22:54;98113.16;;;11.99;100.00
2785;BME280;57944;48.722;9.316;2023-06-05T00:25:25;98116.50;;;11.93;100.00
2785;BME280;57944;48.722;9.316;2023-06-05T00:28:01;98117.44;;;11.85;100.00
2785;BME280;57944;48.722;9.316;2023-06-05T00:30:32;98119.59;;;11.75;100.00
2785;BME280;57944;48.722;9.316;2023-06-05T00:33:05;98121.56;;;11.66;100.00
2785;BME280;57944;48.722;9.316;2023-06-05T00:35:36;98121.19;;;11.62;100.00
2785;BME280;57944;48.722;9.316;2023-06-05T00:38:07;98126.66;;;11.66;100.00
2785;BME280;57944;48.722;9.316;2023-06-05T00:40:38;98122.16;;;11.68;100.00
2785;BME280;57944;48.722;9.316;2023-06-05T00:43:12;98127.88;;;11.70;100.00
2785;BME280;57944;48.722;9.316;2023-06-05T00:45:43;98120.78;;;11.66;100.00
2785;BME280;57944;48.722;9.316;2023-06-05T00:48:14;98121.75;;;11.58;100.00
2785;BME280;57944;48.722;9.316;2023-06-05T00:50:45;98126.81;;;11.45;100.00
2785;BME280;57944;48.722;9.316;2023-06-05T00:53:16;98124.66;;;11.41;100.00
2785;BME280;57944;48.722;9.316;2023-06-05T00:55:47;98120.72;;;11.39;100.00
2785;BME280;57944;48.722;9.316;2023-06-05T00:58:21;98130.53;;;11.35;100.00
2785;BME280;57944;48.722;9.316;2023-06-05T01:07:50;98127.16;;;11.15;100.00
2785;BME280;57944;48.722;9.316;2023-06-05T01:10:22;98132.25;;;11.15;100.00
2785;BME280;57944;48.722;9.316;2023-06-05T01:12:58;98122.63;;;11.17;100.00
2785;BME280;57944;48.722;9.316;2023-06-05T01:15:34;98122.44;;;11.12;100.00
2785;BME280;57944;48.722;9.316;2023-06-05T01:18:06;98128.28;;;10.99;100.00
2785;BME280;57944;48.722;9.316;2023-06-05T01:20:39;98126.13;;;11.03;100.00
2785;BME280;57944;48.722;9.316;2023-06-05T01:23:13;98126.50;;;11.00;100.00
2785;BME280;57944;48.722;9.316;2023-06-05T01:25:44;98123.00;;;11.01;100.00
2785;BME280;57944;48.722;9.316;2023-06-05T01:28:17;98119.06;;;11.05;100.00
2785;BME280;57944;48.722;9.316;2023-06-05T01:30:57;98126.88;;;10.96;100.00
2785;BME280;57944;48.722;9.316;2023-06-05T01:33:34;98130.38;;;10.89;100.00
2785;BME280;57944;48.722;9.316;2023-06-05T01:36:11;98133.91;;;10.81;100.00
2785;BME280;57944;48.722;9.316;2023-06-05T01:38:46;98128.38;;;10.78;100.00
2785;BME280;57944;48.722;9.316;2023-06-05T01:41:19;98123.84;;;10.73;100.00
2785;BME280;57944;48.722;9.316;2023-06-05T01:43:53;98124.44;;;10.75;100.00
2785;BME280;57944;48.722;9.316;2023-06-05T01:46:26;98120.09;;;10.69;100.00
2785;BME280;57944;48.722;9.316;2023-06-05T01:48:57;98118.13;;;10.64;100.00
2785;BME280;57944;48.722;9.316;2023-06-05T01:51:30;98115.91;;;10.55;100.00
2785;BME280;57944;48.722;9.316;2023-06-05T01:54:04;98126.25;;;10.46;100.00
2785;BME280;57944;48.722;9.316;2023-06-05T01:56:35;98117.19;;;10.37;100.00
2785;BME280;57944;48.722;9.316;2023-06-05T01:59:07;98123.59;;;10.33;100.00
2785;BME280;57944;48.722;9.316;2023-06-05T02:01:38;98121.06;;;10.33;100.00
2785;BME280;57944;48.722;9.316;2023-06-05T02:04:15;98112.47;;;10.34;100.00
2785;BME280;57944;48.722;9.316;2023-06-05T02:06:48;98112.84;;;10.31;100.00
2785;BME280;57944;48.722;9.316;2023-06-05T02:09:23;98115.25;;;10.18;100.00
2785;BME280;57944;48.722;9.316;2023-06-05T02:11:54;98108.00;;;10.15;100.00
2785;BME280;57944;48.722;9.316;2023-06-05T02:14:25;98112.34;;;10.21;100.00
2785;BME280;57944;48.722;9.316;2023-06-05T02:16:56;98104.16;;;10.25;100.00
2785;BME280;57944;48.722;9.316;2023-06-05T02:19:28;98110.53;;;10.15;100.00
2785;BME280;57944;48.722;9.316;2023-06-05T02:21:58;98111.88;;;10.11;100.00
2785;BME280;57944;48.722;9.316;2023-06-05T02:24:31;98102.06;;;10.07;100.00
2785;BME280;57944;48.722;9.316;2023-06-05T02:27:03;98104.19;;;10.04;100.00
2785;BME280;57944;48.722;9.316;2023-06-05T02:29:36;98111.56;;;9.92;100.00
2785;BME280;57944;48.722;9.316;2023-06-05T02:32:21;98117.59;;;9.91;100.00
2785;BME280;57944;48.722;9.316;2023-06-05T02:34:54;98110.56;;;9.93;100.00
2785;BME280;57944;48.722;9.316;2023-06-05T02:37:26;98107.50;;;9.98;100.00
2785;BME280;57944;48.722;9.316;2023-06-05T02:40:10;98106.91;;;10.02;100.00
2785;BME280;57944;48.722;9.316;2023-06-05T02:42:41;98113.72;;;9.95;100.00
2785;BME280;57944;48.722;9.316;2023-06-05T02:45:13;98116.03;;;9.90;100.00
2785;BME280;57944;48.722;9.316;2023-06-05T02:47:44;98120.09;;;9.84;100.00
2785;BME280;57944;48.722;9.316;2023-06-05T02:50:15;98116.16;;;9.82;100.00
2785;BME280;57944;48.722;9.316;2023-06-05T02:52:50;98119.81;;;9.73;100.00
2785;BME280;57944;48.722;9.316;2023-06-05T02:55:34;98114.47;;;9.68;100.00
2785;BME280;57944;48.722;9.316;2023-06-05T02:58:11;98111.94;;;9.68;100.00
2785;BME280;57944;48.722;9.316;2023-06-05T03:00:51;98104.09;;;9.69;100.00
2785;BME280;57944;48.722;9.316;2023-06-05T03:03:24;98107.81;;;9.67;100.00
2785;BME280;57944;48.722;9.316;2023-06-05T03:05:58;98118.97;;;9.66;100.00
2785;BME280;57944;48.722;9.316;2023-06-05T03:08:34;98119.44;;;9.54;100.00
2785;BME280;57944;48.722;9.316;2023-06-05T03:11:11;98111.81;;;9.54;100.00
2785;BME280;57944;48.722;9.316;2023-06-05T03:13:43;98118.47;;;9.55;100.00
2785;BME280;57944;48.722;9.316;2023-06-05T03:16:15;98119.66;;;9.53;100.00
2785;BME280;57944;48.722;9.316;2023-06-05T03:18:50;98117.25;;;9.51;100.00
2785;BME280;57944;48.722;9.316;2023-06-05T03:21:23;98107.47;;;9.48;100.00
2785;BME280;57944;48.722;9.316;2023-06-05T03:23:54;98124.00;;;9.59;100.00
2785;BME280;57944;48.722;9.316;2023-06-05T03:26:28;98119.94;;;9.65;100.00
2785;BME280;57944;48.722;9.316;2023-06-05T03:29:00;98116.91;;;9.54;100.00
2785;BME280;57944;48.722;9.316;2023-06-05T03:31:31;98116.91;;;9.54;100.00
2785;BME280;57944;48.722;9.316;2023-06-05T03:34:02;98124.28;;;9.49;100.00
2785;BME280;57944;48.722;9.316;2023-06-05T03:36:35;98121.00;;;9.55;100.00
2785;BME280;57944;48.722;9.316;2023-06-05T03:39:10;98116.16;;;9.60;100.00
2785;BME280;57944;48.722;9.316;2023-06-05T03:41:45;98122.47;;;9.65;100.00
2785;BME280;57944;48.722;9.316;2023-06-05T03:44:16;98123.28;;;9.65;100.00
2785;BME280;57944;48.722;9.316;2023-06-05T03:46:47;98122.13;;;9.68;100.00
2785;BME280;57944;48.722;9.316;2023-06-05T03:49:18;98122.03;;;9.61;100.00
2785;BME280;57944;48.722;9.316;2023-06-05T03:51:51;98124.78;;;9.59;100.00
2785;BME280;57944;48.722;9.316;2023-06-05T03:54:26;98125.63;;;9.67;100.00
2785;BME280;57944;48.722;9.316;2023-06-05T03:57:03;98133.97;;;9.82;100.00
2785;BME280;57944;48.722;9.316;2023-06-05T03:59:38;98136.41;;;9.90;100.00
2785;BME280;57944;48.722;9.316;2023-06-05T04:02:09;98145.91;;;10.03;100.00
2785;BME280;57944;48.722;9.316;2023-06-05T04:04:40;98138.00;;;10.19;100.00
2785;BME280;57944;48.722;9.316;2023-06-05T04:07:11;98142.31;;;10.47;100.00
2785;BME280;57944;48.722;9.316;2023-06-05T04:09:42;98141.75;;;10.86;100.00
2785;BME280;57944;48.722;9.316;2023-06-05T04:12:16;98142.13;;;11.45;100.00
2785;BME280;57944;48.722;9.316;2023-06-05T04:14:48;98151.66;;;11.91;100.00
2785;BME280;57944;48.722;9.316;2023-06-05T04:17:19;98152.78;;;12.48;100.00
2785;BME280;57944;48.722;9.316;2023-06-05T04:19:50;98156.69;;;13.29;100.00
2785;BME280;57944;48.722;9.316;2023-06-05T04:22:21;98157.75;;;14.09;100.00
2785;BME280;57944;48.722;9.316;2023-06-05T04:24:51;98149.47;;;14.58;100.00
2785;BME280;57944;48.722;9.316;2023-06-05T04:27:25;98154.88;;;15.05;100.00
2785;BME280;57944;48.722;9.316;2023-06-05T04:29:56;98156.13;;;15.14;100.00
2785;BME280;57944;48.722;9.316;2023-06-05T04:32:27;98167.75;;;15.16;100.00
2785;BME280;57944;48.722;9.316;2023-06-05T04:35:02;98155.38;;;15.44;98.08
2785;BME280;57944;48.722;9.316;2023-06-05T04:37:34;98158.16;;;15.72;95.00
2785;BME280;57944;48.722;9.316;2023-06-05T04:40:07;98161.31;;;15.86;92.84
2785;BME280;57944;48.722;9.316;2023-06-05T04:42:42;98162.91;;;16.22;90.08
2785;BME280;57944;48.722;9.316;2023-06-05T04:45:14;98159.50;;;16.57;86.44
2785;BME280;57944;48.722;9.316;2023-06-05T04:47:47;98154.59;;;16.79;84.57
2785;BME280;57944;48.722;9.316;2023-06-05T04:50:23;98159.47;;;16.92;83.23
2785;BME280;57944;48.722;9.316;2023-06-05T04:53:02;98159.00;;;17.36;78.67
2785;BME280;57944;48.722;9.316;2023-06-05T04:55:34;98167.16;;;17.61;75.39
2785;BME280;57944;48.722;9.316;2023-06-05T04:58:08;98163.53;;;18.25;70.07
2785;BME280;57944;48.722;9.316;2023-06-05T05:00:39;98162.56;;;18.70;67.01
2785;BME280;57944;48.722;9.316;2023-06-05T05:03:12;98167.22;;;19.12;62.94
2785;BME280;57944;48.722;9.316;2023-06-05T05:05:46;98165.13;;;19.09;63.64
2785;BME280;57944;48.722;9.316;2023-06-05T05:08:16;98162.81;;;19.12;63.77
2785;BME280;57944;48.722;9.316;2023-06-05T05:10:48;98158.28;;;18.97;64.81
2785;BME280;57944;48.722;9.316;2023-06-05T05:13:22;98165.31;;;19.29;62.40
2785;BME280;57944;48.722;9.316;2023-06-05T05:15:54;98163.69;;;19.77;59.32
2785;BME280;57944;48.722;9.316;2023-06-05T05:18:25;98161.63;;;20.17;56.87
2785;BME280;57944;48.722;9.316;2023-06-05T05:20:56;98168.28;;;20.40;55.51
2785;BME280;57944;48.722;9.316;2023-06-05T05:23:27;98166.34;;;20.25;55.34
2785;BME280;57944;48.722;9.316;2023-06-05T05:25:58;98170.50;;;20.68;55.41
2785;BME280;57944;48.722;9.316;2023-06-05T05:28:32;98165.94;;;20.96;54.07
2785;BME280;57944;48.722;9.316;2023-06-05T05:31:03;98163.41;;;21.16;52.99
2785;BME280;57944;48.722;9.316;2023-06-05T05:33:36;98168.16;;;21.40;51.67
2785;BME280;57944;48.722;9.316;2023-06-05T05:36:06;98172.03;;;21.48;50.96
2785;BME280;57944;48.722;9.316;2023-06-05T05:38:37;98169.22;;;21.59;50.22
2785;BME280;57944;48.722;9.316;2023-06-05T05:41:08;98170.25;;;21.69;50.09
2785;BME280;57944;48.722;9.316;2023-06-05T05:43:43;98173.59;;;22.20;48.91
2785;BME280;57944;48.722;9.316;2023-06-05T05:46:14;98172.28;;;22.43;48.68
2785;BME280;57944;48.722;9.316;2023-06-05T05:48:45;98169.88;;;22.62;47.67
2785;BME280;57944;48.722;9.316;2023-06-05T05:51:16;98176.00;;;22.97;47.02
2785;BME280;57944;48.722;9.316;2023-06-05T05:53:47;98170.94;;;23.21;46.05
2785;BME280;57944;48.722;9.316;2023-06-05T05:56:17;98173.94;;;23.38;45.52
2785;BME280;57944;48.722;9.316;2023-06-05T05:58:51;98176.31;;;23.69;44.87
2785;BME280;57944;48.722;9.316;2023-06-05T06:01:22;98166.03;;;24.17;43.76
2785;BME280;57944;48.722;9.316;2023-06-05T06:03:54;98171.75;;;24.67;42.40
2785;BME280;57944;48.722;9.316;2023-06-05T06:06:25;98172.06;;;25.28;41.18
2785;BME280;57944;48.722;9.316;2023-06-05T06:08:56;98188.72;;;24.89;41.52
2785;BME280;57944;48.722;9.316;2023-06-05T06:11:28;98176.47;;;25.46;40.21
2785;BME280;57944;48.722;9.316;2023-06-05T06:14:02;98176.44;;;25.84;39.44
2785;BME280;57944;48.722;9.316;2023-06-05T06:16:32;98175.13;;;25.81;39.24
2785;BME280;57944;48.722;9.316;2023-06-05T06:19:03;98168.44;;;25.94;39.09
2785;BME280;57944;48.722;9.316;2023-06-05T06:21:34;98178.34;;;26.25;38.37
2785;BME280;57944;48.722;9.316;2023-06-05T06:24:06;98181.84;;;26.62;37.74
2785;BME280;57944;48.722;9.316;2023-06-05T06:26:37;98178.16;;;26.63;37.46
2785;BME280;57944;48.722;9.316;2023-06-05T06:29:13;98174.75;;;26.76;37.34
2785;BME280;57944;48.722;9.316;2023-06-05T06:31:44;98178.41;;;27.16;36.84
2785;BME280;57944;48.722;9.316;2023-06-05T06:34:15;98180.13;;;27.07;35.75
2785;BME280;57944;48.722;9.316;2023-06-05T06:36:47;98184.63;;;26.79;35.58
2785;BME280;57944;48.722;9.316;2023-06-05T06:39:18;98181.63;;;27.36;34.34
2785;BME280;57944;48.722;9.316;2023-06-05T06:41:50;98171.63;;;28.14;32.85
2785;BME280;57944;48.722;9.316;2023-06-05T06:44:25;98172.91;;;28.25;33.27
2785;BME280;57944;48.722;9.316;2023-06-05T06:46:56;98175.00;;;28.15;33.24
2785;BME280;57944;48.722;9.316;2023-06-05T06:49:26;98171.22;;;28.87;31.92
2785;BME280;57944;48.722;9.316;2023-06-05T06:51:58;98173.25;;;29.16;31.46
2785;BME280;57944;48.722;9.316;2023-06-05T06:54:28;98170.78;;;29.11;31.57
2785;BME280;57944;48.722;9.316;2023-06-05T06:57:00;98168.13;;;29.54;30.48
2785;BME280;57944;48.722;9.316;2023-06-05T06:59:34;98164.44;;;29.73;30.19
2785;BME280;57944;48.722;9.316;2023-06-05T07:02:10;98167.13;;;29.94;30.18
2785;BME280;57944;48.722;9.316;2023-06-05T07:04:42;98161.78;;;29.64;30.33
2785;BME280;57944;48.722;9.316;2023-06-05T07:07:14;98164.44;;;29.73;29.76
2785;BME280;57944;48.722;9.316;2023-06-05T07:09:46;98172.91;;;30.17;28.74
2785;BME280;57944;48.722;9.316;2023-06-05T07:12:17;98170.53;;;30.92;28.16
2785;BME280;57944;48.722;9.316;2023-06-05T07:14:53;98171.50;;;30.87;28.52
2785;BME280;57944;48.722;9.316;2023-06-05T07:17:23;98171.38;;;31.59;27.79
2785;BME280;57944;48.722;9.316;2023-06-05T07:19:57;98177.38;;;31.93;27.68
2785;BME280;57944;48.722;9.316;2023-06-05T07:22:28;98172.06;;;31.68;27.79
2785;BME280;57944;48.722;9.316;2023-06-05T07:24:59;98168.06;;;31.95;27.18
2785;BME280;57944;48.722;9.316;2023-06-05T07:27:30;98161.03;;;31.99;27.20
2785;BME280;57944;48.722;9.316;2023-06-05T07:30:05;98164.16;;;31.14;27.98
2785;BME280;57944;48.722;9.316;2023-06-05T07:32:35;98170.75;;;31.74;27.62
2785;BME280;57944;48.722;9.316;2023-06-05T07:35:08;98165.06;;;32.83;26.62
2785;BME280;57944;48.722;9.316;2023-06-05T07:37:40;98157.31;;;33.02;26.49
2785;BME280;57944;48.722;9.316;2023-06-05T07:40:11;98163.22;;;33.11;26.05
2785;BME280;57944;48.722;9.316;2023-06-05T07:42:42;98160.53;;;33.24;26.17
2785;BME280;57944;48.722;9.316;2023-06-05T07:45:15;98152.69;;;33.55;26.05
2785;BME280;57944;48.722;9.316;2023-06-05T07:47:46;98152.06;;;33.46;26.65
2785;BME280;57944;48.722;9.316;2023-06-05T07:50:17;98150.47;;;33.13;26.67
2785;BME280;57944;48.722;9.316;2023-06-05T07:52:47;98147.66;;;32.82;27.24
2785;BME280;57944;48.722;9.316;2023-06-05T07:55:19;98152.34;;;32.60;27.19
2785;BME280;57944;48.722;9.316;2023-06-05T07:57:50;98143.66;;;33.56;26.61
2785;BME280;57944;48.722;9.316;2023-06-05T08:00:26;98146.16;;;33.97;26.35
2785;BME280;57944;48.722;9.316;2023-06-05T08:02:57;98140.69;;;34.21;25.98
2785;BME280;57944;48.722;9.316;2023-06-05T08:05:28;98138.88;;;34.10;26.76
2785;BME280;57944;48.722;9.316;2023-06-05T08:07:58;98142.19;;;34.38;26.07
2785;BME280;57944;48.722;9.316;2023-06-05T08:10:30;98134.44;;;34.84;25.68
2785;BME280;57944;48.722;9.316;2023-06-05T08:13:02;98136.97;;;35.16;24.95
2785;BME280;57944;48.722;9.316;2023-06-05T08:15:35;98133.28;;;35.05;25.51
2785;BME280;57944;48.722;9.316;2023-06-05T08:18:06;98130.25;;;34.13;27.05
2785;BME280;57944;48.722;9.316;2023-06-05T08:20:38;98126.56;;;33.38;27.33
2785;BME280;57944;48.722;9.316;2023-06-05T08:23:08;98132.56;;;33.98;27.38
2785;BME280;57944;48.722;9.316;2023-06-05T08:25:40;98132.91;;;33.81;27.52
2785;BME280;57944;48.722;9.316;2023-06-05T08:28:12;98127.44;;;33.74;27.38
2785;BME280;57944;48.722;9.316;2023-06-05T08:30:45;98130.75;;;33.39;27.65
2785;BME280;57944;48.722;9.316;2023-06-05T08:33:17;98127.09;;;33.44;27.65
2785;BME280;57944;48.722;9.316;2023-06-05T08:35:48;98126.50;;;33.50;27.47
2785;BME280;57944;48.722;9.316;2023-06-05T08:38:19;98128.13;;;32.70;28.32
2785;BME280;57944;48.722;9.316;2023-06-05T08:40:55;98125.25;;;33.16;28.34
2785;BME280;57944;48.722;9.316;2023-06-05T08:43:28;98132.34;;;34.39;26.39
2785;BME280;57944;48.722;9.316;2023-06-05T08:46:02;98129.56;;;35.48;25.63
2785;BME280;57944;48.722;9.316;2023-06-05T08:48:41;98129.91;;;35.93;25.28
2785;BME280;57944;48.722;9.316;2023-06-05T08:51:14;98124.34;;;36.55;24.45
2785;BME280;57944;48.722;9.316;2023-06-05T08:54:03;98125.63;;;34.25;27.26
2785;BME280;57944;48.722;9.316;2023-06-05T08:56:41;98113.16;;;34.26;27.14
2785;BME280;57944;48.722;9.316;2023-06-05T08:59:14;98119.03;;;34.16;27.57
2785;BME280;57944;48.722;9.316;2023-06-05T09:01:50;98110.31;;;33.99;27.77
2785;BME280;57944;48.722;9.316;2023-06-05T09:04:21;98111.75;;;34.48;27.14
2785;BME280;57944;48.722;9.316;2023-06-05T09:06:53;98114.75;;;35.05;26.38
2785;BME280;57944;48.722;9.316;2023-06-05T09:09:25;98111.03;;;35.98;25.83
2785;BME280;57944;48.722;9.316;2023-06-05T09:12:04;98108.47;;;35.78;25.55
2785;BME280;57944;48.722;9.316;2023-06-05T09:14:35;98105.50;;;34.95;26.98
2785;BME280;57944;48.722;9.316;2023-06-05T09:17:13;98104.69;;;34.72;27.51
2785;BME280;57944;48.722;9.316;2023-06-05T09:19:44;98107.84;;;34.07;28.70
2785;BME280;57944;48.722;9.316;2023-06-05T09:22:16;98096.34;;;33.23;28.60
2785;BME280;57944;48.722;9.316;2023-06-05T09:25:02;98097.03;;;32.64;30.01
2785;BME280;57944;48.722;9.316;2023-06-05T09:27:33;98095.97;;;32.53;29.83
2785;BME280;57944;48.722;9.316;2023-06-05T09:30:07;98097.03;;;31.20;31.21
2785;BME280;57944;48.722;9.316;2023-06-05T09:32:41;98098.81;;;29.38;33.72
2785;BME280;57944;48.722;9.316;2023-06-05T09:35:16;98091.41;;;28.53;34.76
2785;BME280;57944;48.722;9.316;2023-06-05T09:37:47;98087.97;;;27.87;36.16
2785;BME280;57944;48.722;9.316;2023-06-05T09:40:21;98096.88;;;28.17;35.60
2785;BME280;57944;48.722;9.316;2023-06-05T09:43:15;98081.00;;;27.51;36.71
2785;BME280;57944;48.722;9.316;2023-06-05T09:45:47;98090.81;;;28.91;34.74
2785;BME280;57944;48.722;9.316;2023-06-05T09:48:20;98088.88;;;28.31;34.65
2785;BME280;57944;48.722;9.316;2023-06-05T09:50:53;98083.69;;;27.14;37.06
2785;BME280;57944;48.722;9.316;2023-06-05T09:53:24;98080.66;;;27.21;35.92
2785;BME280;57944;48.722;9.316;2023-06-05T09:55:57;98082.78;;;28.61;34.30
2785;BME280;57944;48.722;9.316;2023-06-05T09:58:28;98084.78;;;29.34;33.47
2785;BME280;57944;48.722;9.316;2023-06-05T10:01:00;98076.66;;;31.63;30.20
2785;BME280;57944;48.722;9.316;2023-06-05T10:03:36;98069.56;;;32.81;29.16
2785;BME280;57944;48.722;9.316;2023-06-05T10:06:11;98070.91;;;33.63;27.58
2785;BME280;57944;48.722;9.316;2023-06-05T10:08:48;98072.03;;;34.48;26.32
2785;BME280;57944;48.722;9.316;2023-06-05T10:11:21;98071.50;;;34.97;26.31
2785;BME280;57944;48.722;9.316;2023-06-05T10:13:53;98069.78;;;34.85;27.19
2785;BME280;57944;48.722;9.316;2023-06-05T10:16:27;98067.56;;;34.13;27.92
2785;BME280;57944;48.722;9.316;2023-06-05T10:19:03;98066.31;;;33.59;28.68
2785;BME280;57944;48.722;9.316;2023-06-05T10:21:34;98055.03;;;33.94;27.56
2785;BME280;57944;48.722;9.316;2023-06-05T10:24:07;98055.22;;;32.01;30.22
2785;BME280;57944;48.722;9.316;2023-06-05T10:26:56;98064.00;;;31.44;31.25
2785;BME280;57944;48.722;9.316;2023-06-05T10:29:58;98063.53;;;31.08;31.08
2785;BME280;57944;48.722;9.316;2023-06-05T10:32:40;98071.94;;;29.88;32.37
2785;BME280;57944;48.722;9.316;2023-06-05T10:35:24;98066.72;;;28.89;32.81
2785;BME280;57944;48.722;9.316;2023-06-05T10:38:08;98063.56;;;27.46;34.52
2785;BME280;57944;48.722;9.316;2023-06-05T10:40:44;98059.53;;;27.40;35.15
2785;BME280;57944;48.722;9.316;2023-06-05T10:43:30;98061.22;;;29.64;31.77
2785;BME280;57944;48.722;9.316;2023-06-05T10:46:02;98061.31;;;28.94;31.78
2785;BME280;57944;48.722;9.316;2023-06-05T10:49:13;98058.09;;;30.59;29.49
2785;BME280;57944;48.722;9.316;2023-06-05T10:51:48;98061.44;;;31.02;28.40
2785;BME280;57944;48.722;9.316;2023-06-05T10:57:20;98054.66;;;30.59;28.86
2785;BME280;57944;48.722;9.316;2023-06-05T11:00:05;98037.81;;;31.26;27.73
2785;BME280;57944;48.722;9.316;2023-06-05T11:02:47;98041.00;;;31.32;27.69
2785;BME280;57944;48.722;9.316;2023-06-05T11:05:18;98048.03;;;30.94;28.07
2785;BME280;57944;48.722;9.316;2023-06-05T11:08:11;98042.94;;;31.80;27.55
2785;BME280;57944;48.722;9.316;2023-06-05T11:11:03;98050.38;;;32.96;26.35
2785;BME280;57944;48.722;9.316;2023-06-05T11:13:53;98052.13;;;33.04;25.72
2785;BME280;57944;48.722;9.316;2023-06-05T11:16:28;98042.34;;;33.68;23.99
2785;BME280;57944;48.722;9.316;2023-06-05T11:22:07;98042.63;;;35.34;22.40
2785;BME280;57944;48.722;9.316;2023-06-05T11:24:41;98037.16;;;36.60;21.78
2785;BME280;57944;48.722;9.316;2023-06-05T11:27:41;98040.56;;;35.24;22.76
2785;BME280;57944;48.722;9.316;2023-06-05T11:30:14;98038.22;;;34.57;23.48
2785;BME280;57944;48.722;9.316;2023-06-05T11:32:57;98039.50;;;35.29;22.41
2785;BME280;57944;48.722;9.316;2023-06-05T11:35:36;98029.16;;;35.20;23.11
2785;BME280;57944;48.722;9.316;2023-06-05T11:38:08;98026.31;;;36.39;21.55
2785;BME280;57944;48.722;9.316;2023-06-05T11:40:43;98020.22;;;37.09;20.29
2785;BME280;57944;48.722;9.316;2023-06-05T11:43:15;98032.22;;;37.41;21.10
2785;BME280;57944;48.722;9.316;2023-06-05T11:45:51;98018.72;;;36.41;21.34
2785;BME280;57944;48.722;9.316;2023-06-05T11:48:23;98027.44;;;33.44;23.28
2785;BME280;57944;48.722;9.316;2023-06-05T11:50:56;98020.72;;;31.32;25.38
2785;BME280;57944;48.722;9.316;2023-06-05T11:53:29;98021.84;;;30.98;25.71
2785;BME280;57944;48.722;9.316;2023-06-05T11:56:12;98018.97;;;32.10;24.44
2785;BME280;57944;48.722;9.316;2023-06-05T11:58:45;98013.19;;;33.65;22.84
2785;BME280;57944;48.722;9.316;2023-06-05T12:01:17;98017.44;;;33.85;22.41
2785;BME280;57944;48.722;9.316;2023-06-05T12:04:04;98015.41;;;35.38;21.92
2785;BME280;57944;48.722;9.316;2023-06-05T12:06:40;98022.91;;;35.09;21.60
2785;BME280;57944;48.722;9.316;2023-06-05T12:09:14;98014.03;;;36.61;19.63
2785;BME280;57944;48.722;9.316;2023-06-05T12:11:48;98011.56;;;38.48;18.83
2785;BME280;57944;48.722;9.316;2023-06-05T12:14:30;98013.06;;;38.46;18.61
2785;BME280;57944;48.722;9.316;2023-06-05T12:17:09;98005.97;;;35.63;20.49
2785;BME280;57944;48.722;9.316;2023-06-05T12:19:40;97993.06;;;32.97;22.54
2785;BME280;57944;48.722;9.316;2023-06-05T12:22:11;97995.25;;;31.36;24.27
2785;BME280;57944;48.722;9.316;2023-06-05T12:24:42;97993.72;;;31.48;24.35
2785;BME280;57944;48.722;9.316;2023-06-05T12:27:15;97991.53;;;32.67;23.09
2785;BME280;57944;48.722;9.316;2023-06-05T12:29:54;97990.31;;;32.49;23.08
2785;BME280;57944;48.722;9.316;2023-06-05T12:32:26;97985.66;;;33.34;21.87
2785;BME280;57944;48.722;9.316;2023-06-05T12:34:58;97981.34;;;32.82;22.14
2785;BME280;57944;48.722;9.316;2023-06-05T12:37:35;97986.34;;;33.63;21.82
2785;BME280;57944;48.722;9.316;2023-06-05T12:40:11;97985.41;;;34.45;21.44
2785;BME280;57944;48.722;9.316;2023-06-05T12:43:16;97979.44;;;35.63;20.56
2785;BME280;57944;48.722;9.316;2023-06-05T12:45:47;97984.72;;;33.42;22.90
2785;BME280;57944;48.722;9.316;2023-06-05T12:48:19;97988.91;;;31.50;24.18
2785;BME280;57944;48.722;9.316;2023-06-05T12:50:51;97983.66;;;29.57;26.05
2785;BME280;57944;48.722;9.316;2023-06-05T12:53:22;97975.41;;;29.38;26.37
2785;BME280;57944;48.722;9.316;2023-06-05T12:55:53;97974.53;;;29.16;27.15
2785;BME280;57944;48.722;9.316;2023-06-05T12:58:26;97970.88;;;29.47;26.68
2785;BME280;57944;48.722;9.316;2023-06-05T13:00:57;97968.78;;;30.75;25.03
2785;BME280;57944;48.722;9.316;2023-06-05T13:03:28;97964.25;;;32.91;22.79
2785;BME280;57944;48.722;9.316;2023-06-05T13:06:01;97970.66;;;34.24;21.49
2785;BME280;57944;48.722;9.316;2023-06-05T13:08:32;97967.66;;;35.87;19.53
2785;BME280;57944;48.722;9.316;2023-06-05T13:11:03;97962.84;;;37.05;19.09
2785;BME280;57944;48.722;9.316;2023-06-05T13:13:37;97963.75;;;34.39;21.15
2785;BME280;57944;48.722;9.316;2023-06-05T13:16:09;97954.22;;;31.60;24.51
2785;BME280;57944;48.722;9.316;2023-06-05T13:18:40;97958.25;;;30.21;26.37
2785;BME280;57944;48.722;9.316;2023-06-05T13:21:11;97950.47;;;28.97;27.13
2785;BME280;57944;48.722;9.316;2023-06-05T13:23:41;97955.94;;;28.05;28.69
2785;BME280;57944;48.722;9.316;2023-06-05T13:26:13;97950.06;;;29.33;27.17
2785;BME280;57944;48.722;9.316;2023-06-05T13:28:46;97956.56;;;30.16;25.55
2785;BME280;57944;48.722;9.316;2023-06-05T13:31:18;97957.69;;;31.03;24.69
2785;BME280;57944;48.722;9.316;2023-06-05T13:33:49;97946.72;;;33.47;22.88
2785;BME280;57944;48.722;9.316;2023-06-05T13:36:20;97949.81;;;34.42;21.98
2785;BME280;57944;48.722;9.316;2023-06-05T13:38:51;97947.34;;;34.30;21.46
2785;BME280;57944;48.722;9.316;2023-06-05T13:41:22;97943.13;;;34.29;21.78
2785;BME280;57944;48.722;9.316;2023-06-05T13:43:56;97934.47;;;34.71;21.19
2785;BME280;57944;48.722;9.316;2023-06-05T13:46:27;97925.19;;;35.57;20.93
2785;BME280;57944;48.722;9.316;2023-06-05T13:48:58;97936.00;;;33.08;22.94
2785;BME280;57944;48.722;9.316;2023-06-05T13:51:29;97934.41;;;33.70;21.93
2785;BME280;57944;48.722;9.316;2023-06-05T13:54:00;97930.63;;;34.07;22.42
2785;BME280;57944;48.722;9.316;2023-06-05T13:56:31;97925.34;;;34.49;21.76